sensor_id;sensor_type;location;lat;lon;timestamp;temperature;humidity
20091;DHT22;10205;49.678;6.560;2023-04-25T00:01:02;15.20;58.40
20091;DHT22;10205;49.678;6.560;2023-04-25T00:03:30;15.20;58.40
20091;DHT22;10205;49.678;6.560;2023-04-25T00:05:57;15.20;58.40
20091;DHT22;10205;49.678;6.560;2023-04-25T00:08:27;15.10;58.40
20091;DHT22;10205;49.678;6.560;2023-04-25T00:10:57;15.10;58.40
20091;DHT22;10205;49.678;6.560;2023-04-25T00:13:24;15.10;58.40
20091;DHT22;10205;49.678;6.560;2023-04-25T00:15:52;15.10;58.40
20091;DHT22;10205;49.678;6.560;2023-04-25T00:18:19;15.10;58.40
20091;DHT22;10205;49.678;6.560;2023-04-25T00:20:47;15.10;58.40
20091;DHT22;10205;49.678;6.560;2023-04-25T00:23:15;15.10;58.50
20091;DHT22;10205;49.678;6.560;2023-04-25T00:25:44;15.00;58.50
20091;DHT22;10205;49.678;6.560;2023-04-25T00:28:13;15.10;58.50
20091;DHT22;10205;49.678;6.560;2023-04-25T00:30:41;15.00;58.50
20091;DHT22;10205;49.678;6.560;2023-04-25T00:33:10;15.00;58.70
20091;DHT22;10205;49.678;6.560;2023-04-25T00:35:37;15.00;58.70
20091;DHT22;10205;49.678;6.560;2023-04-25T00:38:05;15.00;58.70
20091;DHT22;10205;49.678;6.560;2023-04-25T00:40:32;15.00;58.70
20091;DHT22;10205;49.678;6.560;2023-04-25T00:43:00;14.90;58.70
20091;DHT22;10205;49.678;6.560;2023-04-25T00:45:29;14.90;58.70
20091;DHT22;10205;49.678;6.560;2023-04-25T00:47:56;14.90;58.70
20091;DHT22;10205;49.678;6.560;2023-04-25T00:50:24;14.90;58.70
20091;DHT22;10205;49.678;6.560;2023-04-25T00:52:51;14.90;58.70
20091;DHT22;10205;49.678;6.560;2023-04-25T00:55:19;14.90;58.70
20091;DHT22;10205;49.678;6.560;2023-04-25T00:57:47;14.90;58.80
20091;DHT22;10205;49.678;6.560;2023-04-25T01:00:14;14.90;58.90
20091;DHT22;10205;49.678;6.560;2023-04-25T01:02:44;14.80;58.90
20091;DHT22;10205;49.678;6.560;2023-04-25T01:05:12;14.80;58.90
20091;DHT22;10205;49.678;6.560;2023-04-25T01:07:39;14.80;58.90
20091;DHT22;10205;49.678;6.560;2023-04-25T01:10:07;14.80;59.10
20091;DHT22;10205;49.678;6.560;2023-04-25T01:12:35;14.80;59.00
20091;DHT22;10205;49.678;6.560;2023-04-25T01:15:03;14.70;59.00
20091;DHT22;10205;49.678;6.560;2023-04-25T01:17:31;14.70;59.00
20091;DHT22;10205;49.678;6.560;2023-04-25T01:20:02;14.70;59.00
20091;DHT22;10205;49.678;6.560;2023-04-25T01:22:32;14.70;59.10
20091;DHT22;10205;49.678;6.560;2023-04-25T01:25:02;14.70;59.10
20091;DHT22;10205;49.678;6.560;2023-04-25T01:27:31;14.70;59.10
20091;DHT22;10205;49.678;6.560;2023-04-25T01:29:59;14.70;59.10
20091;DHT22;10205;49.678;6.560;2023-04-25T01:32:26;14.70;59.10
20091;DHT22;10205;49.678;6.560;2023-04-25T01:34:54;14.60;59.70
20091;DHT22;10205;49.678;6.560;2023-04-25T01:37:21;14.60;59.70
20091;DHT22;10205;49.678;6.560;2023-04-25T01:39:50;14.60;59.10
20091;DHT22;10205;49.678;6.560;2023-04-25T01:42:18;14.60;59.10
20091;DHT22;10205;49.678;6.560;2023-04-25T01:44:45;14.60;59.10
20091;DHT22;10205;49.678;6.560;2023-04-25T01:47:12;14.60;59.20
20091;DHT22;10205;49.678;6.560;2023-04-25T01:49:39;14.60;59.10
20091;DHT22;10205;49.678;6.560;2023-04-25T01:52:06;14.60;59.20
20091;DHT22;10205;49.678;6.560;2023-04-25T01:54:33;14.60;59.20
20091;DHT22;10205;49.678;6.560;2023-04-25T01:57:02;14.60;59.80
20091;DHT22;10205;49.678;6.560;2023-04-25T01:59:29;14.50;59.20
20091;DHT22;10205;49.678;6.560;2023-04-25T02:01:56;14.50;59.20
20091;DHT22;10205;49.678;6.560;2023-04-25T02:04:23;14.60;59.20
20091;DHT22;10205;49.678;6.560;2023-04-25T02:06:50;14.60;59.30
20091;DHT22;10205;49.678;6.560;2023-04-25T02:09:20;14.50;59.20
20091;DHT22;10205;49.678;6.560;2023-04-25T02:11:47;14.50;59.20
20091;DHT22;10205;49.678;6.560;2023-04-25T02:14:15;14.50;59.30
20091;DHT22;10205;49.678;6.560;2023-04-25T02:16:42;14.50;59.30
20091;DHT22;10205;49.678;6.560;2023-04-25T02:19:10;14.40;59.30
20091;DHT22;10205;49.678;6.560;2023-04-25T02:21:37;14.40;59.30
20091;DHT22;10205;49.678;6.560;2023-04-25T02:24:06;14.40;59.30
20091;DHT22;10205;49.678;6.560;2023-04-25T02:26:33;14.40;59.40
20091;DHT22;10205;49.678;6.560;2023-04-25T02:29:00;14.40;59.40
20091;DHT22;10205;49.678;6.560;2023-04-25T02:31:29;14.40;59.40
20091;DHT22;10205;49.678;6.560;2023-04-25T02:33:56;14.40;59.60
20091;DHT22;10205;49.678;6.560;2023-04-25T02:36:23;14.40;59.50
20091;DHT22;10205;49.678;6.560;2023-04-25T02:38:51;14.40;59.40
20091;DHT22;10205;49.678;6.560;2023-04-25T02:41:18;14.40;59.50
20091;DHT22;10205;49.678;6.560;2023-04-25T02:43:46;14.30;59.40
20091;DHT22;10205;49.678;6.560;2023-04-25T02:46:14;14.30;59.40
20091;DHT22;10205;49.678;6.560;2023-04-25T02:48:43;14.30;59.50
20091;DHT22;10205;49.678;6.560;2023-04-25T02:51:10;14.30;59.50
20091;DHT22;10205;49.678;6.560;2023-04-25T02:53:37;14.30;59.40
20091;DHT22;10205;49.678;6.560;2023-04-25T02:56:05;14.30;59.50
20091;DHT22;10205;49.678;6.560;2023-04-25T02:58:32;14.30;59.50
20091;DHT22;10205;49.678;6.560;2023-04-25T03:00:59;14.30;59.50
20091;DHT22;10205;49.678;6.560;2023-04-25T03:03:29;14.30;59.50
20091;DHT22;10205;49.678;6.560;2023-04-25T03:05:57;14.20;60.30
20091;DHT22;10205;49.678;6.560;2023-04-25T03:08:25;14.30;59.60
20091;DHT22;10205;49.678;6.560;2023-04-25T03:11:00;14.20;59.50
20091;DHT22;10205;49.678;6.560;2023-04-25T03:13:27;14.20;59.50
20091;DHT22;10205;49.678;6.560;2023-04-25T03:15:55;14.20;59.60
20091;DHT22;10205;49.678;6.560;2023-04-25T03:18:22;14.20;59.60
20091;DHT22;10205;49.678;6.560;2023-04-25T03:20:49;14.20;59.70
20091;DHT22;10205;49.678;6.560;2023-04-25T03:23:18;14.20;59.60
20091;DHT22;10205;49.678;6.560;2023-04-25T03:25:45;14.10;59.60
20091;DHT22;10205;49.678;6.560;2023-04-25T03:28:12;14.20;59.70
20091;DHT22;10205;49.678;6.560;2023-04-25T03:30:40;14.20;59.60
20091;DHT22;10205;49.678;6.560;2023-04-25T03:33:07;14.20;60.30
20091;DHT22;10205;49.678;6.560;2023-04-25T03:35:34;14.20;59.70
20091;DHT22;10205;49.678;6.560;2023-04-25T03:38:01;14.10;59.70
20091;DHT22;10205;49.678;6.560;2023-04-25T03:40:30;14.10;59.70
20091;DHT22;10205;49.678;6.560;2023-04-25T03:42:57;14.10;59.70
20091;DHT22;10205;49.678;6.560;2023-04-25T03:45:24;14.10;59.70
20091;DHT22;10205;49.678;6.560;2023-04-25T03:47:51;14.10;59.70
20091;DHT22;10205;49.678;6.560;2023-04-25T03:50:18;14.10;59.80
20091;DHT22;10205;49.678;6.560;2023-04-25T03:52:45;14.10;59.80
20091;DHT22;10205;49.678;6.560;2023-04-25T03:55:12;14.10;59.80
20091;DHT22;10205;49.678;6.560;2023-04-25T03:57:41;14.10;60.60
20091;DHT22;10205;49.678;6.560;2023-04-25T04:00:09;14.00;59.80
20091;DHT22;10205;49.678;6.560;2023-04-25T04:02:37;14.00;59.80
20091;DHT22;10205;49.678;6.560;2023-04-25T04:05:04;14.00;59.80
20091;DHT22;10205;49.678;6.560;2023-04-25T04:07:32;14.00;59.80
20091;DHT22;10205;49.678;6.560;2023-04-25T04:10:05;14.00;60.60
20091;DHT22;10205;49.678;6.560;2023-04-25T04:12:33;14.00;59.80
20091;DHT22;10205;49.678;6.560;2023-04-25T04:15:02;14.00;59.80
20091;DHT22;10205;49.678;6.560;2023-04-25T04:17:30;14.00;59.90
20091;DHT22;10205;49.678;6.560;2023-04-25T04:19:57;14.00;59.90
20091;DHT22;10205;49.678;6.560;2023-04-25T04:22:24;14.00;59.90
20091;DHT22;10205;49.678;6.560;2023-04-25T04:24:52;14.00;59.90
20091;DHT22;10205;49.678;6.560;2023-04-25T04:27:20;14.00;59.90
20091;DHT22;10205;49.678;6.560;2023-04-25T04:29:51;14.00;59.90
20091;DHT22;10205;49.678;6.560;2023-04-25T04:32:22;14.00;60.00
20091;DHT22;10205;49.678;6.560;2023-04-25T04:34:50;13.90;60.00
20091;DHT22;10205;49.678;6.560;2023-04-25T04:37:20;13.90;60.70
20091;DHT22;10205;49.678;6.560;2023-04-25T04:39:48;13.90;59.90
20091;DHT22;10205;49.678;6.560;2023-04-25T04:42:15;13.90;59.90
20091;DHT22;10205;49.678;6.560;2023-04-25T04:44:42;13.90;59.90
20091;DHT22;10205;49.678;6.560;2023-04-25T04:47:10;13.90;60.00
20091;DHT22;10205;49.678;6.560;2023-04-25T04:49:40;13.90;60.00
20091;DHT22;10205;49.678;6.560;2023-04-25T04:52:08;13.90;60.00
20091;DHT22;10205;49.678;6.560;2023-04-25T04:54:35;13.90;60.80
20091;DHT22;10205;49.678;6.560;2023-04-25T04:57:02;13.90;60.00
20091;DHT22;10205;49.678;6.560;2023-04-25T04:59:29;13.80;60.00
20091;DHT22;10205;49.678;6.560;2023-04-25T05:01:57;13.80;60.00
20091;DHT22;10205;49.678;6.560;2023-04-25T05:04:24;13.80;60.00
20091;DHT22;10205;49.678;6.560;2023-04-25T05:06:52;13.80;60.00
20091;DHT22;10205;49.678;6.560;2023-04-25T05:09:19;13.80;60.00
20091;DHT22;10205;49.678;6.560;2023-04-25T05:11:53;13.80;60.00
20091;DHT22;10205;49.678;6.560;2023-04-25T05:14:20;13.80;60.00
20091;DHT22;10205;49.678;6.560;2023-04-25T05:16:48;13.80;60.00
20091;DHT22;10205;49.678;6.560;2023-04-25T05:19:16;13.80;60.00
20091;DHT22;10205;49.678;6.560;2023-04-25T05:21:43;13.80;60.90
20091;DHT22;10205;49.678;6.560;2023-04-25T05:24:12;13.80;60.00
20091;DHT22;10205;49.678;6.560;2023-04-25T05:26:39;13.80;60.10
20091;DHT22;10205;49.678;6.560;2023-04-25T05:29:06;13.80;60.10
20091;DHT22;10205;49.678;6.560;2023-04-25T05:31:35;13.80;60.20
20091;DHT22;10205;49.678;6.560;2023-04-25T05:34:02;13.70;60.10
20091;DHT22;10205;49.678;6.560;2023-04-25T05:36:29;13.70;60.10
20091;DHT22;10205;49.678;6.560;2023-04-25T05:38:58;13.70;60.10
20091;DHT22;10205;49.678;6.560;2023-04-25T05:41:26;13.70;60.30
20091;DHT22;10205;49.678;6.560;2023-04-25T05:43:53;13.70;60.20
20091;DHT22;10205;49.678;6.560;2023-04-25T05:46:20;13.70;60.30
20091;DHT22;10205;49.678;6.560;2023-04-25T05:48:47;13.70;60.30
20091;DHT22;10205;49.678;6.560;2023-04-25T05:51:15;13.70;60.20
20091;DHT22;10205;49.678;6.560;2023-04-25T05:53:44;13.70;60.30
20091;DHT22;10205;49.678;6.560;2023-04-25T05:56:11;13.70;60.30
20091;DHT22;10205;49.678;6.560;2023-04-25T05:58:40;13.70;60.40
20091;DHT22;10205;49.678;6.560;2023-04-25T06:01:07;13.70;60.40
20091;DHT22;10205;49.678;6.560;2023-04-25T06:03:36;13.60;60.30
20091;DHT22;10205;49.678;6.560;2023-04-25T06:06:04;13.70;60.50
20091;DHT22;10205;49.678;6.560;2023-04-25T06:08:31;13.60;60.50
20091;DHT22;10205;49.678;6.560;2023-04-25T06:10:58;13.60;60.40
20091;DHT22;10205;49.678;6.560;2023-04-25T06:13:26;13.60;60.40
20091;DHT22;10205;49.678;6.560;2023-04-25T06:15:54;13.60;60.50
20091;DHT22;10205;49.678;6.560;2023-04-25T06:18:21;13.60;60.50
20091;DHT22;10205;49.678;6.560;2023-04-25T06:20:48;13.60;60.50
20091;DHT22;10205;49.678;6.560;2023-04-25T06:23:15;13.60;60.50
20091;DHT22;10205;49.678;6.560;2023-04-25T06:25:42;13.60;60.50
20091;DHT22;10205;49.678;6.560;2023-04-25T06:28:09;13.60;60.60
20091;DHT22;10205;49.678;6.560;2023-04-25T06:30:36;13.60;60.70
20091;DHT22;10205;49.678;6.560;2023-04-25T06:33:05;13.60;60.70
20091;DHT22;10205;49.678;6.560;2023-04-25T06:35:34;13.60;60.80
20091;DHT22;10205;49.678;6.560;2023-04-25T06:38:01;13.50;60.60
20091;DHT22;10205;49.678;6.560;2023-04-25T06:40:28;13.50;60.70
20091;DHT22;10205;49.678;6.560;2023-04-25T06:42:55;13.60;60.90
20091;DHT22;10205;49.678;6.560;2023-04-25T06:45:22;13.60;61.10
20091;DHT22;10205;49.678;6.560;2023-04-25T06:47:49;13.50;61.00
20091;DHT22;10205;49.678;6.560;2023-04-25T06:50:17;13.50;61.00
20091;DHT22;10205;49.678;6.560;2023-04-25T06:52:44;13.50;61.00
20091;DHT22;10205;49.678;6.560;2023-04-25T06:55:11;13.50;61.30
20091;DHT22;10205;49.678;6.560;2023-04-25T06:57:38;13.50;61.50
20091;DHT22;10205;49.678;6.560;2023-04-25T07:00:06;13.50;61.70
20091;DHT22;10205;49.678;6.560;2023-04-25T07:02:35;13.40;61.70
20091;DHT22;10205;49.678;6.560;2023-04-25T07:05:02;13.40;61.70
20091;DHT22;10205;49.678;6.560;2023-04-25T07:07:31;13.40;61.40
20091;DHT22;10205;49.678;6.560;2023-04-25T07:09:58;13.30;61.20
20091;DHT22;10205;49.678;6.560;2023-04-25T07:12:25;13.30;61.40
20091;DHT22;10205;49.678;6.560;2023-04-25T07:14:52;13.30;61.50
20091;DHT22;10205;49.678;6.560;2023-04-25T07:17:19;13.30;61.70
20091;DHT22;10205;49.678;6.560;2023-04-25T07:19:47;13.20;61.70
20091;DHT22;10205;49.678;6.560;2023-04-25T07:22:14;13.20;61.70
20091;DHT22;10205;49.678;6.560;2023-04-25T07:24:42;13.20;61.70
20091;DHT22;10205;49.678;6.560;2023-04-25T07:27:12;13.20;61.40
20091;DHT22;10205;49.678;6.560;2023-04-25T07:29:39;13.20;62.30
20091;DHT22;10205;49.678;6.560;2023-04-25T07:32:07;13.20;61.50
20091;DHT22;10205;49.678;6.560;2023-04-25T07:34:35;13.20;61.50
20091;DHT22;10205;49.678;6.560;2023-04-25T07:37:04;13.20;61.50
20091;DHT22;10205;49.678;6.560;2023-04-25T07:39:31;13.20;61.40
20091;DHT22;10205;49.678;6.560;2023-04-25T07:42:00;13.10;61.50
20091;DHT22;10205;49.678;6.560;2023-04-25T07:44:27;13.10;61.70
20091;DHT22;10205;49.678;6.560;2023-04-25T07:46:55;13.10;61.80
20091;DHT22;10205;49.678;6.560;2023-04-25T07:49:25;13.10;61.70
20091;DHT22;10205;49.678;6.560;2023-04-25T07:51:52;13.10;61.70
20091;DHT22;10205;49.678;6.560;2023-04-25T07:54:19;13.10;61.70
20091;DHT22;10205;49.678;6.560;2023-04-25T07:56:46;13.10;61.70
20091;DHT22;10205;49.678;6.560;2023-04-25T07:59:15;13.20;61.70
20091;DHT22;10205;49.678;6.560;2023-04-25T08:01:44;13.20;61.70
20091;DHT22;10205;49.678;6.560;2023-04-25T08:04:12;13.20;61.60
20091;DHT22;10205;49.678;6.560;2023-04-25T08:06:39;13.20;61.40
20091;DHT22;10205;49.678;6.560;2023-04-25T08:09:06;13.20;61.10
20091;DHT22;10205;49.678;6.560;2023-04-25T08:11:34;13.20;61.10
20091;DHT22;10205;49.678;6.560;2023-04-25T08:14:01;13.20;61.20
20091;DHT22;10205;49.678;6.560;2023-04-25T08:16:29;13.20;61.20
20091;DHT22;10205;49.678;6.560;2023-04-25T08:18:56;13.10;61.10
20091;DHT22;10205;49.678;6.560;2023-04-25T08:21:24;13.10;61.30
20091;DHT22;10205;49.678;6.560;2023-04-25T08:23:52;13.20;61.40
20091;DHT22;10205;49.678;6.560;2023-04-25T08:26:19;13.20;61.40
20091;DHT22;10205;49.678;6.560;2023-04-25T08:28:46;13.20;61.40
20091;DHT22;10205;49.678;6.560;2023-04-25T08:31:13;13.10;61.30
20091;DHT22;10205;49.678;6.560;2023-04-25T08:33:42;13.20;61.30
20091;DHT22;10205;49.678;6.560;2023-04-25T08:36:10;13.20;61.30
20091;DHT22;10205;49.678;6.560;2023-04-25T08:38:37;13.20;61.10
20091;DHT22;10205;49.678;6.560;2023-04-25T08:41:05;13.20;61.00
20091;DHT22;10205;49.678;6.560;2023-04-25T08:43:34;13.20;60.90
20091;DHT22;10205;49.678;6.560;2023-04-25T08:46:02;13.20;60.90
20091;DHT22;10205;49.678;6.560;2023-04-25T08:48:32;13.20;60.70
20091;DHT22;10205;49.678;6.560;2023-04-25T08:51:03;13.20;60.70
20091;DHT22;10205;49.678;6.560;2023-04-25T08:53:34;13.20;60.80
20091;DHT22;10205;49.678;6.560;2023-04-25T08:56:01;13.10;60.50
20091;DHT22;10205;49.678;6.560;2023-04-25T08:58:29;13.20;61.40
20091;DHT22;10205;49.678;6.560;2023-04-25T09:00:57;13.10;60.30
20091;DHT22;10205;49.678;6.560;2023-04-25T09:03:24;13.10;61.40
20091;DHT22;10205;49.678;6.560;2023-04-25T09:05:51;13.20;60.60
20091;DHT22;10205;49.678;6.560;2023-04-25T09:08:20;13.10;60.70
20091;DHT22;10205;49.678;6.560;2023-04-25T09:10:47;13.10;60.70
20091;DHT22;10205;49.678;6.560;2023-04-25T09:13:24;13.20;60.70
20091;DHT22;10205;49.678;6.560;2023-04-25T09:15:53;13.10;60.70
20091;DHT22;10205;49.678;6.560;2023-04-25T09:18:25;13.20;61.60
20091;DHT22;10205;49.678;6.560;2023-04-25T09:20:54;13.20;60.90
20091;DHT22;10205;49.678;6.560;2023-04-25T09:23:23;13.20;60.90
20091;DHT22;10205;49.678;6.560;2023-04-25T09:25:53;13.20;61.40
20091;DHT22;10205;49.678;6.560;2023-04-25T09:28:25;13.20;61.00
20091;DHT22;10205;49.678;6.560;2023-04-25T09:30:55;13.20;61.10
20091;DHT22;10205;49.678;6.560;2023-04-25T09:33:28;13.30;61.20
20091;DHT22;10205;49.678;6.560;2023-04-25T09:36:03;13.30;61.20
20091;DHT22;10205;49.678;6.560;2023-04-25T09:38:40;13.30;61.30
20091;DHT22;10205;49.678;6.560;2023-04-25T09:41:08;13.30;61.30
20091;DHT22;10205;49.678;6.560;2023-04-25T09:43:36;13.40;61.20
20091;DHT22;10205;49.678;6.560;2023-04-25T09:46:08;13.40;61.30
20091;DHT22;10205;49.678;6.560;2023-04-25T09:48:37;13.40;61.10
20091;DHT22;10205;49.678;6.560;2023-04-25T09:51:08;13.50;61.10
20091;DHT22;10205;49.678;6.560;2023-04-25T09:53:39;13.50;60.90
20091;DHT22;10205;49.678;6.560;2023-04-25T09:56:09;13.50;60.90
20091;DHT22;10205;49.678;6.560;2023-04-25T09:58:39;13.50;60.70
20091;DHT22;10205;49.678;6.560;2023-04-25T10:01:08;13.50;60.50
20091;DHT22;10205;49.678;6.560;2023-04-25T10:03:38;13.60;60.40
20091;DHT22;10205;49.678;6.560;2023-04-25T10:06:08;13.60;60.30
20091;DHT22;10205;49.678;6.560;2023-04-25T10:08:38;13.60;60.30
20091;DHT22;10205;49.678;6.560;2023-04-25T10:11:07;13.60;60.50
20091;DHT22;10205;49.678;6.560;2023-04-25T10:13:35;13.60;60.50
20091;DHT22;10205;49.678;6.560;2023-04-25T10:16:04;13.60;60.60
20091;DHT22;10205;49.678;6.560;2023-04-25T10:18:32;13.60;60.60
20091;DHT22;10205;49.678;6.560;2023-04-25T10:21:01;13.60;61.20
20091;DHT22;10205;49.678;6.560;2023-04-25T10:23:30;13.60;60.30
20091;DHT22;10205;49.678;6.560;2023-04-25T10:25:59;13.60;60.10
20091;DHT22;10205;49.678;6.560;2023-04-25T10:28:26;13.60;60.00
20091;DHT22;10205;49.678;6.560;2023-04-25T10:30:57;13.60;59.80
20091;DHT22;10205;49.678;6.560;2023-04-25T10:33:35;13.60;59.50
20091;DHT22;10205;49.678;6.560;2023-04-25T10:36:11;13.60;59.60
20091;DHT22;10205;49.678;6.560;2023-04-25T10:38:38;13.60;59.50
20091;DHT22;10205;49.678;6.560;2023-04-25T10:41:09;13.60;59.70
20091;DHT22;10205;49.678;6.560;2023-04-25T10:43:38;13.60;59.60
20091;DHT22;10205;49.678;6.560;2023-04-25T10:46:15;13.60;59.60
20091;DHT22;10205;49.678;6.560;2023-04-25T10:48:47;13.60;59.50
20091;DHT22;10205;49.678;6.560;2023-04-25T10:51:21;13.60;59.60
20091;DHT22;10205;49.678;6.560;2023-04-25T10:53:57;13.60;59.70
20091;DHT22;10205;49.678;6.560;2023-04-25T10:56:28;13.60;59.60
20091;DHT22;10205;49.678;6.560;2023-04-25T10:59:11;13.60;59.70
20091;DHT22;10205;49.678;6.560;2023-04-25T11:01:40;13.60;59.60
20091;DHT22;10205;49.678;6.560;2023-04-25T11:04:19;13.60;59.60
20091;DHT22;10205;49.678;6.560;2023-04-25T11:06:58;13.70;59.60
20091;DHT22;10205;49.678;6.560;2023-04-25T11:09:33;13.70;59.20
20091;DHT22;10205;49.678;6.560;2023-04-25T11:12:02;13.70;59.40
20091;DHT22;10205;49.678;6.560;2023-04-25T11:14:29;13.70;59.50
20091;DHT22;10205;49.678;6.560;2023-04-25T11:16:57;13.80;59.60
20091;DHT22;10205;49.678;6.560;2023-04-25T11:19:25;13.80;59.60
20091;DHT22;10205;49.678;6.560;2023-04-25T11:21:55;13.80;59.60
20091;DHT22;10205;49.678;6.560;2023-04-25T11:24:25;13.90;59.50
20091;DHT22;10205;49.678;6.560;2023-04-25T11:26:54;13.90;59.40
20091;DHT22;10205;49.678;6.560;2023-04-25T11:29:23;13.90;59.40
20091;DHT22;10205;49.678;6.560;2023-04-25T11:31:53;14.00;58.90
20091;DHT22;10205;49.678;6.560;2023-04-25T11:34:22;14.00;59.00
20091;DHT22;10205;49.678;6.560;2023-04-25T11:36:50;14.10;58.80
20091;DHT22;10205;49.678;6.560;2023-04-25T11:39:18;14.10;58.80
20091;DHT22;10205;49.678;6.560;2023-04-25T11:41:47;14.20;58.80
20091;DHT22;10205;49.678;6.560;2023-04-25T11:44:15;14.20;58.50
20091;DHT22;10205;49.678;6.560;2023-04-25T11:46:44;14.30;58.30
20091;DHT22;10205;49.678;6.560;2023-04-25T11:49:12;14.30;58.00
20091;DHT22;10205;49.678;6.560;2023-04-25T11:51:40;14.30;58.00
20091;DHT22;10205;49.678;6.560;2023-04-25T11:54:08;14.30;57.90
20091;DHT22;10205;49.678;6.560;2023-04-25T11:56:35;14.40;57.90
20091;DHT22;10205;49.678;6.560;2023-04-25T11:59:04;14.40;57.80
20091;DHT22;10205;49.678;6.560;2023-04-25T12:01:33;14.50;57.70
20091;DHT22;10205;49.678;6.560;2023-04-25T12:04:13;14.50;57.70
20091;DHT22;10205;49.678;6.560;2023-04-25T12:06:42;14.50;57.10
20091;DHT22;10205;49.678;6.560;2023-04-25T12:09:12;14.50;57.50
20091;DHT22;10205;49.678;6.560;2023-04-25T12:11:44;14.50;57.40
20091;DHT22;10205;49.678;6.560;2023-04-25T12:14:12;14.60;57.30
20091;DHT22;10205;49.678;6.560;2023-04-25T12:16:48;14.60;57.20
20091;DHT22;10205;49.678;6.560;2023-04-25T12:19:19;14.60;57.20
20091;DHT22;10205;49.678;6.560;2023-04-25T12:21:47;14.60;57.00
20091;DHT22;10205;49.678;6.560;2023-04-25T12:24:17;14.70;57.00
20091;DHT22;10205;49.678;6.560;2023-04-25T12:26:50;14.70;56.90
20091;DHT22;10205;49.678;6.560;2023-04-25T12:29:22;14.70;57.00
20091;DHT22;10205;49.678;6.560;2023-04-25T12:31:52;14.70;56.60
20091;DHT22;10205;49.678;6.560;2023-04-25T12:34:22;14.70;56.70
20091;DHT22;10205;49.678;6.560;2023-04-25T12:36:52;14.70;56.30
20091;DHT22;10205;49.678;6.560;2023-04-25T12:39:20;14.80;56.10
20091;DHT22;10205;49.678;6.560;2023-04-25T12:41:49;14.80;56.10
20091;DHT22;10205;49.678;6.560;2023-04-25T12:44:17;14.80;56.20
20091;DHT22;10205;49.678;6.560;2023-04-25T12:46:45;14.80;56.50
20091;DHT22;10205;49.678;6.560;2023-04-25T12:49:13;14.90;56.80
20091;DHT22;10205;49.678;6.560;2023-04-25T12:51:41;14.90;56.70
20091;DHT22;10205;49.678;6.560;2023-04-25T12:54:08;15.00;56.60
20091;DHT22;10205;49.678;6.560;2023-04-25T12:56:36;15.00;57.00
20091;DHT22;10205;49.678;6.560;2023-04-25T12:59:03;15.10;57.00
20091;DHT22;10205;49.678;6.560;2023-04-25T13:01:30;15.20;57.30
20091;DHT22;10205;49.678;6.560;2023-04-25T13:03:58;15.30;57.20
20091;DHT22;10205;49.678;6.560;2023-04-25T13:06:25;15.50;57.10
20091;DHT22;10205;49.678;6.560;2023-04-25T13:08:54;15.50;56.90
20091;DHT22;10205;49.678;6.560;2023-04-25T13:11:21;15.70;57.00
20091;DHT22;10205;49.678;6.560;2023-04-25T13:13:48;15.80;57.00
20091;DHT22;10205;49.678;6.560;2023-04-25T13:16:15;15.90;56.60
20091;DHT22;10205;49.678;6.560;2023-04-25T13:18:44;16.00;56.70
20091;DHT22;10205;49.678;6.560;2023-04-25T13:21:11;16.10;56.10
20091;DHT22;10205;49.678;6.560;2023-04-25T13:23:38;16.30;55.70
20091;DHT22;10205;49.678;6.560;2023-04-25T13:26:09;16.40;55.30
20091;DHT22;10205;49.678;6.560;2023-04-25T13:28:37;16.40;55.10
20091;DHT22;10205;49.678;6.560;2023-04-25T13:31:06;16.50;54.30
20091;DHT22;10205;49.678;6.560;2023-04-25T13:33:33;16.60;54.10
20091;DHT22;10205;49.678;6.560;2023-04-25T13:36:01;16.60;53.90
20091;DHT22;10205;49.678;6.560;2023-04-25T13:38:28;16.60;53.90
20091;DHT22;10205;49.678;6.560;2023-04-25T13:40:56;16.60;54.10
20091;DHT22;10205;49.678;6.560;2023-04-25T13:43:24;16.70;54.00
20091;DHT22;10205;49.678;6.560;2023-04-25T13:45:51;16.70;54.10
20091;DHT22;10205;49.678;6.560;2023-04-25T13:48:19;16.70;53.90
20091;DHT22;10205;49.678;6.560;2023-04-25T13:50:46;16.80;54.20
20091;DHT22;10205;49.678;6.560;2023-04-25T13:53:13;16.90;53.90
20091;DHT22;10205;49.678;6.560;2023-04-25T13:55:40;16.90;53.60
20091;DHT22;10205;49.678;6.560;2023-04-25T13:58:08;17.00;53.40
20091;DHT22;10205;49.678;6.560;2023-04-25T14:00:38;17.10;53.50
20091;DHT22;10205;49.678;6.560;2023-04-25T14:03:05;17.10;53.20
20091;DHT22;10205;49.678;6.560;2023-04-25T14:05:34;17.20;53.10
20091;DHT22;10205;49.678;6.560;2023-04-25T14:08:05;17.20;52.60
20091;DHT22;10205;49.678;6.560;2023-04-25T14:10:36;17.30;52.60
20091;DHT22;10205;49.678;6.560;2023-04-25T14:13:05;17.30;52.80
20091;DHT22;10205;49.678;6.560;2023-04-25T14:15:33;17.30;52.10
20091;DHT22;10205;49.678;6.560;2023-04-25T14:18:02;17.40;51.80
20091;DHT22;10205;49.678;6.560;2023-04-25T14:20:30;17.40;51.90
20091;DHT22;10205;49.678;6.560;2023-04-25T14:22:57;17.40;51.90
20091;DHT22;10205;49.678;6.560;2023-04-25T14:25:25;17.50;52.10
20091;DHT22;10205;49.678;6.560;2023-04-25T14:27:52;17.50;51.60
20091;DHT22;10205;49.678;6.560;2023-04-25T14:30:21;17.50;51.50
20091;DHT22;10205;49.678;6.560;2023-04-25T14:32:48;17.60;50.70
20091;DHT22;10205;49.678;6.560;2023-04-25T14:35:18;17.60;50.30
20091;DHT22;10205;49.678;6.560;2023-04-25T14:37:45;17.60;50.10
20091;DHT22;10205;49.678;6.560;2023-04-25T14:40:13;17.60;50.10
20091;DHT22;10205;49.678;6.560;2023-04-25T14:42:42;17.60;49.70
20091;DHT22;10205;49.678;6.560;2023-04-25T14:45:10;17.60;49.80
20091;DHT22;10205;49.678;6.560;2023-04-25T14:47:49;17.60;50.30
20091;DHT22;10205;49.678;6.560;2023-04-25T14:50:18;17.60;50.10
20091;DHT22;10205;49.678;6.560;2023-04-25T14:52:45;17.60;49.70
20091;DHT22;10205;49.678;6.560;2023-04-25T14:55:12;17.60;50.00
20091;DHT22;10205;49.678;6.560;2023-04-25T14:57:39;17.60;49.30
20091;DHT22;10205;49.678;6.560;2023-04-25T15:00:07;17.60;48.90
20091;DHT22;10205;49.678;6.560;2023-04-25T15:02:40;17.60;49.10
20091;DHT22;10205;49.678;6.560;2023-04-25T15:05:08;17.60;49.70
20091;DHT22;10205;49.678;6.560;2023-04-25T15:07:39;17.60;48.90
20091;DHT22;10205;49.678;6.560;2023-04-25T15:10:07;17.60;49.60
20091;DHT22;10205;49.678;6.560;2023-04-25T15:12:49;17.60;49.40
20091;DHT22;10205;49.678;6.560;2023-04-25T15:15:19;17.70;50.00
20091;DHT22;10205;49.678;6.560;2023-04-25T15:17:46;17.70;50.10
20091;DHT22;10205;49.678;6.560;2023-04-25T15:20:13;17.80;50.20
20091;DHT22;10205;49.678;6.560;2023-04-25T15:22:44;17.80;50.20
20091;DHT22;10205;49.678;6.560;2023-04-25T15:25:11;17.80;49.80
20091;DHT22;10205;49.678;6.560;2023-04-25T15:27:39;17.90;50.20
20091;DHT22;10205;49.678;6.560;2023-04-25T15:30:09;17.90;49.90
20091;DHT22;10205;49.678;6.560;2023-04-25T15:32:39;17.90;49.10
20091;DHT22;10205;49.678;6.560;2023-04-25T15:35:07;18.00;48.60
20091;DHT22;10205;49.678;6.560;2023-04-25T15:37:36;18.00;48.20